Wathena, Kansas
Current Conditions -  °F | °C
As of 10:53 PM on Monday 22 Dec 2014 (Local Time) from KSTJ Reporting Station
Broken Clouds Broken Clouds  
Wind Chill:   Ceiling: 3000
Heat Index:   Visibility: 10mi
Dew Point:   Wind: 10mph
Humidity: 86%   Direction: 260°W
Pressure: 29.52"   Gusts: NA
Location:  39.76°N, 94.95°W
Report Text: KSTJ 230453Z AUTO 26009KT 10SM BKN030 04/02 A2952 RMK AO2 SLP001 T00440022
Loading
Personal Weather Stations






























Interactive Weather Map New forecast layout! Learn more

10-Day Weather Forecast

Advertisements
Track Severe Weather on mobile